createdAt,value
2023-10-10T00:01:47.905Z,15.09
2023-10-10T00:06:51.071Z,14.99
2023-10-10T00:11:54.616Z,14.90
2023-10-10T00:17:00.977Z,15.17
2023-10-10T00:22:05.511Z,15.07
2023-10-10T00:27:14.257Z,15.13
2023-10-10T00:32:23.775Z,15.09
2023-10-10T00:37:30.430Z,15.20
2023-10-10T00:42:39.470Z,15.05
2023-10-10T00:47:46.029Z,15.12
2023-10-10T00:52:53.311Z,15.08
2023-10-10T00:57:59.909Z,15.16
2023-10-10T01:03:08.718Z,14.88
2023-10-10T01:08:11.752Z,15.09
2023-10-10T01:13:14.648Z,15.05
2023-10-10T01:18:18.891Z,15.10
2023-10-10T01:23:28.098Z,15.09
2023-10-10T01:28:35.671Z,15.08
2023-10-10T01:33:43.169Z,15.10
2023-10-10T01:39:09.978Z,15.20
2023-10-10T01:44:13.807Z,15.04
2023-10-10T01:49:21.550Z,15.00
2023-10-10T01:54:35.837Z,14.85
2023-10-10T01:59:39.831Z,14.92
2023-10-10T02:04:43.208Z,14.91
2023-10-10T02:09:54.378Z,14.98
2023-10-10T02:14:57.713Z,14.96
2023-10-10T02:20:18.974Z,14.98
2023-10-10T02:25:39.824Z,14.93
2023-10-10T02:30:42.653Z,14.92
2023-10-10T02:35:55.896Z,14.92
2023-10-10T02:41:16.444Z,14.90
2023-10-10T02:46:19.450Z,14.60
2023-10-10T02:51:22.322Z,14.73
2023-10-10T02:56:26.471Z,14.84
2023-10-10T03:01:51.860Z,14.84
2023-10-10T03:06:54.771Z,14.84
2023-10-10T03:12:04.941Z,14.82
2023-10-10T03:17:29.352Z,14.78
2023-10-10T03:22:53.775Z,14.78
2023-10-10T03:28:06.382Z,14.80
2023-10-10T03:33:17.896Z,14.83
2023-10-10T03:38:38.856Z,14.85
2023-10-10T03:44:00.191Z,14.84
2023-10-10T03:49:21.678Z,14.71
2023-10-10T03:54:42.053Z,14.69
2023-10-10T04:00:03.633Z,14.65
2023-10-10T04:05:33.259Z,14.64
2023-10-10T04:10:50.064Z,14.61
2023-10-10T04:16:11.648Z,14.67
2023-10-10T04:21:32.121Z,14.63
2023-10-10T04:26:52.391Z,14.59
2023-10-10T04:32:14.222Z,14.61
2023-10-10T04:37:34.695Z,14.57
2023-10-10T04:42:55.072Z,14.48
2023-10-10T04:48:16.715Z,14.48
2023-10-10T04:53:37.115Z,14.66
2023-10-10T04:58:57.316Z,14.54
2023-10-10T05:04:19.058Z,14.64
2023-10-10T05:09:39.420Z,14.72
2023-10-10T05:14:59.642Z,14.59
2023-10-10T05:20:21.499Z,14.67
2023-10-10T05:25:25.197Z,14.62
2023-10-10T05:30:40.875Z,14.63
2023-10-10T05:35:48.667Z,14.60
2023-10-10T05:40:52.395Z,14.53
2023-10-10T05:45:55.984Z,14.50
2023-10-10T05:51:00.543Z,14.40
2023-10-10T05:56:13.921Z,14.33
2023-10-10T06:01:18.515Z,14.26
2023-10-10T06:06:22.854Z,14.28
2023-10-10T06:11:25.728Z,14.41
2023-10-10T06:16:29.558Z,14.56
2023-10-10T06:21:33.778Z,14.64
2023-10-10T06:26:38.003Z,14.70
2023-10-10T06:31:44.947Z,14.69
2023-10-10T06:36:50.771Z,14.79
2023-10-10T06:41:55.701Z,14.91
2023-10-10T06:46:58.914Z,14.98
2023-10-10T06:52:03.065Z,15.02
2023-10-10T06:57:06.858Z,15.09
2023-10-10T07:02:21.067Z,14.96
2023-10-10T07:07:27.657Z,14.97
2023-10-10T07:12:32.978Z,15.05
2023-10-10T07:17:40.153Z,15.18
2023-10-10T07:22:46.259Z,15.22
2023-10-10T07:27:49.076Z,15.34
2023-10-10T07:32:52.357Z,15.54
2023-10-10T07:38:00.008Z,15.60
2023-10-10T07:43:04.385Z,15.78
2023-10-10T07:48:36.698Z,15.97
2023-10-10T07:53:45.720Z,16.31
2023-10-10T07:58:53.993Z,16.23
2023-10-10T08:03:57.089Z,16.73
2023-10-10T08:09:19.333Z,16.44
2023-10-10T08:14:25.670Z,16.46
2023-10-10T08:19:34.501Z,16.43
2023-10-10T08:24:40.412Z,16.66
2023-10-10T08:29:43.247Z,16.30
2023-10-10T08:34:46.522Z,16.80
2023-10-10T08:39:51.260Z,16.18
2023-10-10T08:44:56.830Z,16.13
2023-10-10T08:50:02.061Z,16.39
2023-10-10T08:55:11.376Z,16.40
2023-10-10T09:00:18.908Z,16.47
2023-10-10T09:05:23.729Z,16.58
2023-10-10T09:10:29.475Z,16.33
2023-10-10T09:15:35.120Z,16.71
2023-10-10T09:20:38.462Z,17.05
2023-10-10T09:25:45.333Z,17.54
2023-10-10T09:31:00.013Z,18.09
2023-10-10T09:36:10.408Z,18.22
2023-10-10T09:41:28.546Z,18.35
2023-10-10T09:46:59.931Z,18.41
2023-10-10T09:52:33.530Z,18.42
2023-10-10T09:57:41.444Z,18.58
2023-10-10T10:02:49.455Z,18.59
2023-10-10T10:08:06.445Z,18.42
2023-10-10T10:13:27.706Z,19.30
2023-10-10T10:18:45.729Z,20.46
2023-10-10T10:23:58.637Z,21.14
2023-10-10T10:29:16.819Z,20.76
2023-10-10T10:34:32.451Z,20.21
2023-10-10T10:39:37.315Z,19.98
2023-10-10T10:44:48.384Z,20.04
2023-10-10T10:49:55.589Z,19.84
2023-10-10T10:55:19.990Z,20.35
2023-10-10T11:00:55.528Z,20.55
2023-10-10T11:05:58.678Z,20.15
2023-10-10T11:11:21.677Z,20.18
2023-10-10T11:16:37.974Z,20.49
2023-10-10T11:21:48.731Z,21.26
2023-10-10T11:27:03.711Z,20.71
2023-10-10T11:32:09.341Z,20.52
2023-10-10T11:37:18.507Z,19.77
2023-10-10T11:42:30.998Z,20.44
2023-10-10T11:47:43.555Z,21.00
2023-10-10T11:52:54.663Z,21.26
2023-10-10T11:57:59.253Z,20.29
2023-10-10T12:03:06.713Z,21.42
2023-10-10T12:08:09.610Z,22.22
2023-10-10T12:13:20.586Z,22.83
2023-10-10T12:18:27.365Z,22.19
2023-10-10T12:23:31.363Z,21.60
2023-10-10T12:28:34.327Z,22.18
2023-10-10T12:33:38.521Z,23.43
2023-10-10T12:38:41.648Z,23.95
2023-10-10T12:43:44.478Z,26.32
2023-10-10T12:48:52.310Z,25.36
2023-10-10T12:54:02.123Z,23.25
2023-10-10T12:59:23.532Z,23.04
2023-10-10T13:04:33.079Z,22.55
2023-10-10T13:09:43.567Z,23.41
2023-10-10T13:14:51.881Z,23.51
2023-10-10T13:19:59.679Z,23.02
2023-10-10T13:25:09.768Z,22.88
2023-10-10T13:30:13.740Z,22.86
2023-10-10T13:35:21.182Z,22.30
2023-10-10T13:40:24.368Z,22.46
2023-10-10T13:45:29.393Z,21.97
2023-10-10T13:50:43.305Z,22.90
2023-10-10T13:55:47.196Z,22.32
2023-10-10T14:00:56.567Z,22.46
2023-10-10T14:06:05.227Z,24.06
2023-10-10T14:11:08.344Z,23.16
2023-10-10T14:16:11.274Z,23.13
2023-10-10T14:21:17.824Z,24.37
2023-10-10T14:26:28.743Z,26.29
2023-10-10T14:31:32.367Z,25.89
2023-10-10T14:36:40.333Z,25.68
2023-10-10T14:41:44.646Z,24.96
2023-10-10T14:46:47.517Z,23.78
2023-10-10T14:51:53.998Z,21.81
2023-10-10T14:56:56.890Z,21.33
2023-10-10T15:02:01.208Z,21.08
2023-10-10T15:07:05.929Z,21.00
2023-10-10T15:12:09.795Z,21.34
2023-10-10T15:17:13.424Z,21.12
2023-10-10T15:22:18.818Z,21.12
2023-10-10T15:27:21.726Z,21.04
2023-10-10T15:32:24.591Z,20.87
2023-10-10T15:37:31.633Z,20.79
2023-10-10T15:42:34.426Z,20.72
2023-10-10T15:47:37.330Z,20.61
2023-10-10T15:52:43.060Z,20.28
2023-10-10T15:57:45.987Z,20.23
2023-10-10T16:02:53.386Z,20.18
2023-10-10T16:08:08.845Z,20.22
2023-10-10T16:13:12.141Z,20.18
2023-10-10T16:18:17.075Z,20.09
2023-10-10T16:28:57.933Z,19.85
2023-10-10T16:34:03.231Z,19.63
2023-10-10T16:39:07.598Z,19.60
2023-10-10T16:44:14.802Z,19.52
2023-10-10T16:49:20.918Z,19.42
2023-10-10T16:54:23.881Z,19.36
2023-10-10T16:59:28.075Z,19.31
2023-10-10T17:04:30.922Z,19.24
2023-10-10T17:09:36.645Z,19.14
2023-10-10T17:14:40.814Z,19.13
2023-10-10T17:19:43.683Z,19.08
2023-10-10T17:24:48.896Z,18.91
2023-10-10T17:29:53.170Z,18.86
2023-10-10T17:34:56.042Z,18.82
2023-10-10T17:39:59.101Z,18.77
2023-10-10T17:45:04.873Z,18.75
2023-10-10T17:50:11.428Z,18.70
2023-10-10T17:55:14.228Z,18.60
2023-10-10T18:00:22.032Z,18.63
2023-10-10T18:05:25.299Z,18.85
2023-10-10T18:10:28.163Z,18.95
2023-10-10T18:15:33.152Z,18.85
2023-10-10T18:20:40.740Z,18.70
2023-10-10T18:25:44.438Z,18.66
2023-10-10T18:30:48.636Z,18.53
2023-10-10T18:35:51.489Z,18.48
2023-10-10T18:40:56.105Z,18.43
2023-10-10T18:46:01.032Z,18.38
2023-10-10T18:51:04.862Z,18.32
2023-10-10T18:56:09.113Z,18.41
2023-10-10T19:01:13.880Z,18.39
2023-10-10T19:06:18.875Z,18.41
2023-10-10T19:11:24.523Z,18.55
2023-10-10T19:16:29.021Z,18.53
2023-10-10T19:21:31.968Z,18.65
2023-10-10T19:26:36.334Z,18.68
2023-10-10T19:31:41.103Z,18.57
2023-10-10T19:36:45.886Z,18.46
2023-10-10T19:41:48.835Z,18.33
2023-10-10T19:46:54.695Z,18.34
2023-10-10T19:51:58.147Z,18.35
2023-10-10T19:57:00.973Z,18.24
2023-10-10T20:02:07.790Z,18.18
2023-10-10T20:07:10.710Z,18.01
2023-10-10T20:12:15.947Z,17.93
2023-10-10T20:17:20.140Z,17.96
2023-10-10T20:22:22.961Z,18.02
2023-10-10T20:27:31.555Z,17.89
2023-10-10T20:32:36.053Z,17.86
2023-10-10T20:37:39.260Z,18.06
2023-10-10T20:42:43.806Z,18.05
2023-10-10T20:47:48.798Z,17.95
2023-10-10T20:52:52.321Z,18.03
2023-10-10T20:57:56.783Z,18.08
2023-10-10T21:03:07.183Z,17.91
2023-10-10T21:08:10.453Z,17.90
2023-10-10T21:13:14.195Z,17.84
2023-10-10T21:18:19.645Z,17.98
2023-10-10T21:23:22.640Z,18.01
2023-10-10T21:28:26.178Z,17.98
2023-10-10T21:33:30.699Z,17.78
2023-10-10T21:38:35.408Z,17.68
2023-10-10T21:43:38.322Z,17.74
2023-10-10T21:48:42.586Z,17.79
2023-10-10T21:53:45.641Z,17.66
2023-10-10T21:58:48.458Z,17.54
2023-10-10T22:03:53.048Z,17.55
2023-10-10T22:08:55.979Z,17.55
2023-10-10T22:13:59.267Z,17.37
2023-10-10T22:19:03.567Z,17.51
2023-10-10T22:24:07.002Z,17.62
2023-10-10T22:29:12.431Z,17.56
2023-10-10T22:34:16.570Z,17.35
2023-10-10T22:39:19.580Z,17.70
2023-10-10T22:44:22.563Z,17.56
2023-10-10T22:49:26.736Z,17.52
2023-10-10T22:54:29.537Z,17.51
2023-10-10T22:59:35.232Z,17.47
2023-10-10T23:04:41.119Z,17.56
2023-10-10T23:09:44.727Z,17.53
2023-10-10T23:14:47.757Z,17.44
2023-10-10T23:19:51.927Z,17.36
2023-10-10T23:24:54.781Z,17.34
2023-10-10T23:29:57.684Z,17.41
2023-10-10T23:35:03.974Z,17.28
2023-10-10T23:40:15.308Z,17.17
2023-10-10T23:45:23.509Z,17.51
2023-10-10T23:50:28.888Z,17.23
2023-10-10T23:55:31.703Z,17.39
